createdAt,value
2018-10-03T00:01:53.088Z,13.70
2018-10-03T00:05:57.304Z,13.70
2018-10-03T00:10:01.432Z,13.60
2018-10-03T00:14:06.014Z,13.60
2018-10-03T00:18:10.164Z,13.60
2018-10-03T00:22:15.353Z,13.60
2018-10-03T00:26:19.503Z,13.60
2018-10-03T00:30:23.617Z,13.60
2018-10-03T00:34:27.712Z,13.60
2018-10-03T00:38:31.912Z,13.60
2018-10-03T00:42:35.970Z,13.60
2018-10-03T00:46:40.167Z,13.50
2018-10-03T00:50:44.310Z,13.60
2018-10-03T00:54:48.727Z,13.60
2018-10-03T00:58:54.347Z,13.50
2018-10-03T01:02:58.470Z,13.50
2018-10-03T01:07:02.676Z,13.50
2018-10-03T01:11:06.707Z,13.50
2018-10-03T01:15:10.876Z,13.40
2018-10-03T01:19:15.105Z,13.40
2018-10-03T01:23:19.164Z,13.40
2018-10-03T01:27:23.273Z,13.40
2018-10-03T01:31:27.785Z,13.40
2018-10-03T01:35:31.850Z,13.40
2018-10-03T01:39:35.887Z,13.40
2018-10-03T01:43:40.157Z,13.40
2018-10-03T01:47:44.304Z,13.30
2018-10-03T01:51:48.371Z,13.30
2018-10-03T01:55:52.566Z,13.30
2018-10-03T01:59:56.830Z,13.30
2018-10-03T02:04:00.959Z,13.30
2018-10-03T02:08:05.452Z,13.30
2018-10-03T02:12:09.496Z,13.30
2018-10-03T02:16:13.817Z,13.30
2018-10-03T02:20:17.868Z,13.20
2018-10-03T02:24:22.076Z,13.20
2018-10-03T02:28:26.138Z,13.20
2018-10-03T02:32:30.503Z,13.20
2018-10-03T02:36:34.536Z,13.20
2018-10-03T02:40:38.639Z,13.20
2018-10-03T02:44:42.758Z,13.20
2018-10-03T02:48:46.773Z,13.10
2018-10-03T02:52:50.918Z,13.10
2018-10-03T02:56:55.387Z,13.10
2018-10-03T03:00:59.426Z,13.20
2018-10-03T03:05:03.527Z,13.20
2018-10-03T03:09:11.014Z,13.10
2018-10-03T03:13:15.121Z,13.20
2018-10-03T03:17:19.316Z,13.20
2018-10-03T03:21:23.499Z,13.20
2018-10-03T03:25:27.885Z,13.10
2018-10-03T03:29:32.407Z,13.10
2018-10-03T03:33:36.677Z,13.10
2018-10-03T03:37:40.866Z,13.00
2018-10-03T03:41:45.172Z,13.00
2018-10-03T03:45:49.327Z,12.80
2018-10-03T03:49:53.668Z,13.00
2018-10-03T03:53:57.943Z,13.00
2018-10-03T03:58:02.269Z,13.10
2018-10-03T04:02:06.365Z,13.10
2018-10-03T04:06:10.834Z,13.00
2018-10-03T04:10:15.171Z,13.00
2018-10-03T04:14:19.344Z,12.90
2018-10-03T04:18:24.060Z,12.90
2018-10-03T04:22:29.067Z,12.90
2018-10-03T04:26:33.870Z,12.90
2018-10-03T04:30:38.008Z,12.90
2018-10-03T04:34:42.199Z,12.80
2018-10-03T04:38:46.468Z,12.90
2018-10-03T04:42:52.601Z,12.90
2018-10-03T04:46:57.967Z,12.80
2018-10-03T04:51:02.214Z,12.90
2018-10-03T04:55:06.651Z,12.80
2018-10-03T04:59:10.944Z,12.80
2018-10-03T05:03:15.299Z,12.70
2018-10-03T05:07:19.427Z,12.80
2018-10-03T05:11:24.006Z,12.70
2018-10-03T05:15:28.170Z,12.70
2018-10-03T05:19:32.796Z,12.70
2018-10-03T05:23:37.048Z,12.80
2018-10-03T05:27:41.194Z,12.80
2018-10-03T05:31:45.279Z,12.70
2018-10-03T05:35:49.416Z,12.80
2018-10-03T05:39:53.610Z,12.70
2018-10-03T05:43:57.661Z,12.70
2018-10-03T05:48:01.845Z,12.70
2018-10-03T05:52:05.895Z,12.70
2018-10-03T05:56:10.712Z,12.70
2018-10-03T06:00:15.802Z,12.60
2018-10-03T06:04:19.947Z,12.70
2018-10-03T06:08:24.233Z,12.70
2018-10-03T06:12:28.331Z,12.70
2018-10-03T06:16:32.449Z,12.80
2018-10-03T06:20:37.532Z,12.90
2018-10-03T06:24:41.834Z,12.90
2018-10-03T06:28:46.620Z,12.90
2018-10-03T06:32:51.290Z,13.00
2018-10-03T06:36:55.376Z,13.00
2018-10-03T06:40:59.512Z,13.20
2018-10-03T06:45:03.686Z,13.30
2018-10-03T06:49:08.881Z,13.30
2018-10-03T06:53:13.279Z,13.40
2018-10-03T06:57:17.348Z,13.50
2018-10-03T07:01:21.593Z,13.60
2018-10-03T07:05:25.832Z,13.90
2018-10-03T07:09:30.077Z,14.00
2018-10-03T07:13:34.176Z,14.10
2018-10-03T07:17:38.625Z,14.20
2018-10-03T07:21:42.771Z,14.40
2018-10-03T07:25:46.933Z,14.70
2018-10-03T07:29:50.989Z,15.00
2018-10-03T07:33:55.031Z,15.30
2018-10-03T07:37:59.073Z,15.60
2018-10-03T07:42:03.440Z,15.80
2018-10-03T07:46:08.059Z,16.00
2018-10-03T07:50:12.259Z,16.20
2018-10-03T07:54:16.323Z,16.40
2018-10-03T07:58:20.598Z,16.20
2018-10-03T08:02:24.749Z,16.20
2018-10-03T08:06:29.783Z,16.40
2018-10-03T08:10:34.345Z,16.80
2018-10-03T08:14:38.556Z,17.00
2018-10-03T08:18:42.709Z,17.20
2018-10-03T08:22:46.933Z,17.00
2018-10-03T08:26:51.091Z,17.00
2018-10-03T08:30:55.408Z,17.00
2018-10-03T08:35:00.786Z,17.00
2018-10-03T08:39:08.025Z,17.00
2018-10-03T08:43:12.356Z,17.20
2018-10-03T08:47:16.463Z,17.60
2018-10-03T08:51:20.580Z,18.50
2018-10-03T08:55:24.711Z,20.40
2018-10-03T08:59:28.861Z,22.20
2018-10-03T09:03:33.406Z,22.60
2018-10-03T09:07:37.780Z,22.80
2018-10-03T09:11:41.974Z,23.50
2018-10-03T09:15:46.046Z,22.80
2018-10-03T09:19:50.163Z,22.70
2018-10-03T09:23:54.282Z,22.60
2018-10-03T09:27:58.444Z,23.30
2018-10-03T09:32:02.619Z,22.90
2018-10-03T09:36:07.017Z,23.40
2018-10-03T09:40:11.236Z,22.70
2018-10-03T09:44:15.585Z,23.00
2018-10-03T09:48:20.176Z,23.60
2018-10-03T09:52:24.356Z,25.20
2018-10-03T09:56:28.479Z,25.00
2018-10-03T10:00:39.630Z,25.20
2018-10-03T10:04:43.835Z,23.00
2018-10-03T10:08:48.073Z,21.40
2018-10-03T10:12:52.388Z,20.90
2018-10-03T10:16:56.699Z,20.20
2018-10-03T10:21:00.971Z,19.70
2018-10-03T10:25:05.401Z,19.50
2018-10-03T10:29:09.511Z,19.40
2018-10-03T10:33:14.619Z,19.00
2018-10-03T10:37:18.710Z,18.90
2018-10-03T10:41:22.961Z,18.70
2018-10-03T10:45:26.924Z,18.30
2018-10-03T10:49:30.983Z,18.10
2018-10-03T10:53:35.196Z,17.90
2018-10-03T10:57:39.414Z,17.90
2018-10-03T11:01:43.781Z,17.70
2018-10-03T11:05:48.119Z,17.90
2018-10-03T11:09:52.272Z,17.90
2018-10-03T11:13:56.352Z,18.00
2018-10-03T11:18:00.670Z,17.80
2018-10-03T11:22:04.811Z,17.80
2018-10-03T11:26:08.870Z,17.70
2018-10-03T11:30:12.959Z,17.40
2018-10-03T11:34:17.129Z,17.30
2018-10-03T11:38:21.731Z,17.30
2018-10-03T11:42:25.724Z,17.30
2018-10-03T11:46:29.784Z,17.20
2018-10-03T11:50:33.940Z,17.20
2018-10-03T11:54:38.040Z,17.00
2018-10-03T11:58:42.114Z,16.90
2018-10-03T12:02:46.397Z,16.80
2018-10-03T12:06:50.383Z,16.80
2018-10-03T12:10:54.441Z,16.90
2018-10-03T12:14:58.491Z,16.80
2018-10-03T12:19:02.623Z,16.90
2018-10-03T12:23:06.783Z,16.90
2018-10-03T12:27:10.879Z,16.80
2018-10-03T12:31:15.125Z,16.90
2018-10-03T12:35:24.622Z,16.70
2018-10-03T12:39:28.831Z,16.80
2018-10-03T12:43:33.098Z,16.80
2018-10-03T12:47:37.207Z,16.80
2018-10-03T12:51:41.353Z,16.90
2018-10-03T12:55:45.584Z,16.80
2018-10-03T12:59:49.709Z,16.70
2018-10-03T13:03:53.767Z,16.60
2018-10-03T13:07:58.479Z,16.60
2018-10-03T13:12:02.609Z,16.60
2018-10-03T13:16:06.831Z,16.50
2018-10-03T13:20:10.885Z,16.50
2018-10-03T13:24:15.489Z,16.40
2018-10-03T13:28:19.587Z,16.40
2018-10-03T13:32:23.639Z,16.30
2018-10-03T13:36:27.796Z,16.30
2018-10-03T13:40:31.827Z,16.20
2018-10-03T13:44:35.912Z,16.20
2018-10-03T13:48:40.108Z,16.10
2018-10-03T13:52:44.832Z,16.10
2018-10-03T13:56:49.524Z,16.00
2018-10-03T14:00:53.655Z,16.00
2018-10-03T14:04:57.886Z,15.90
2018-10-03T14:09:01.952Z,16.00
2018-10-03T14:13:06.126Z,16.10
2018-10-03T14:17:10.344Z,16.10
2018-10-03T14:21:14.507Z,16.10
2018-10-03T14:25:18.704Z,16.00
2018-10-03T14:29:22.778Z,16.10
2018-10-03T14:33:26.885Z,16.10
2018-10-03T14:37:30.977Z,16.10
2018-10-03T14:41:35.123Z,16.00
2018-10-03T14:45:39.159Z,16.00
2018-10-03T14:49:43.332Z,16.10
2018-10-03T14:53:47.846Z,16.20
2018-10-03T14:57:51.899Z,16.10
2018-10-03T15:01:56.103Z,16.00
2018-10-03T15:06:00.207Z,16.10
2018-10-03T15:10:04.388Z,16.10
2018-10-03T15:14:08.456Z,16.00
2018-10-03T15:18:12.727Z,15.90
2018-10-03T15:22:16.916Z,15.90
2018-10-03T15:26:21.030Z,15.90
2018-10-03T15:30:25.107Z,15.80
2018-10-03T15:34:29.179Z,15.80
2018-10-03T15:38:33.362Z,15.70
2018-10-03T15:42:37.434Z,15.60
2018-10-03T15:46:41.747Z,15.60
2018-10-03T15:50:46.417Z,15.50
2018-10-03T15:54:50.644Z,15.40
2018-10-03T15:58:54.762Z,15.40
2018-10-03T16:02:59.267Z,15.30
2018-10-03T16:07:03.383Z,15.30
2018-10-03T16:11:07.461Z,15.20
2018-10-03T16:15:11.712Z,15.20
2018-10-03T16:19:16.200Z,15.20
2018-10-03T16:23:20.311Z,15.10
2018-10-03T16:27:24.932Z,15.10
2018-10-03T16:31:29.051Z,15.00
2018-10-03T16:35:33.135Z,14.90
2018-10-03T16:39:37.476Z,15.00
2018-10-03T16:43:41.641Z,14.90
2018-10-03T20:08:07.760Z,14.60
2018-10-03T20:12:12.078Z,14.90
2018-10-03T20:16:16.518Z,14.80
2018-10-03T20:20:21.425Z,14.80
2018-10-03T20:24:25.588Z,14.70
2018-10-03T20:28:29.869Z,14.70
2018-10-03T20:32:35.415Z,14.70
2018-10-03T20:36:39.731Z,14.60
2018-10-03T20:40:44.412Z,14.60
2018-10-03T20:44:49.477Z,14.70
2018-10-03T20:48:53.711Z,14.70
2018-10-03T20:52:57.941Z,14.60
2018-10-03T20:57:02.056Z,14.60
2018-10-03T21:01:06.244Z,14.60
2018-10-03T21:05:10.374Z,14.50
2018-10-03T21:09:15.969Z,14.60
2018-10-03T21:13:20.213Z,14.60
2018-10-03T21:17:24.557Z,14.60
2018-10-03T21:21:28.655Z,14.60
2018-10-03T21:25:32.837Z,14.60
2018-10-03T21:29:37.111Z,14.60
2018-10-03T21:33:41.216Z,14.60
2018-10-03T21:37:45.490Z,14.60
2018-10-03T21:41:49.847Z,14.60
2018-10-03T21:45:53.903Z,14.60
2018-10-03T21:49:57.960Z,14.70
2018-10-03T21:54:02.139Z,14.70
2018-10-03T21:58:06.314Z,14.60
2018-10-03T22:02:10.424Z,14.70
2018-10-03T22:06:14.856Z,14.70
2018-10-03T22:10:19.121Z,14.70
2018-10-03T22:14:23.225Z,14.70
2018-10-03T22:18:27.475Z,14.70
2018-10-03T22:22:31.712Z,14.70
2018-10-03T22:26:35.803Z,14.70
2018-10-03T22:30:39.927Z,14.70
2018-10-03T22:34:44.104Z,14.80
2018-10-03T22:38:48.657Z,14.80
2018-10-03T22:42:52.772Z,14.80
2018-10-03T22:46:56.875Z,14.70
2018-10-03T22:51:01.300Z,14.80
2018-10-03T22:55:05.864Z,14.70
2018-10-03T22:59:09.981Z,14.80
2018-10-03T23:03:14.172Z,14.80
2018-10-03T23:07:19.211Z,14.80
2018-10-03T23:11:23.719Z,14.80
2018-10-03T23:15:27.908Z,14.80
2018-10-03T23:19:48.743Z,14.80
2018-10-03T23:23:53.802Z,14.90
2018-10-03T23:27:57.939Z,14.80
2018-10-03T23:32:02.189Z,14.80
2018-10-03T23:36:06.417Z,14.80
2018-10-03T23:40:10.895Z,14.80
2018-10-03T23:44:15.845Z,14.80
2018-10-03T23:48:20.453Z,14.80
2018-10-03T23:52:25.251Z,14.80
2018-10-03T23:56:29.537Z,14.90
